logo dgac
Martes 27 de Febrero del 2024
Buscar por aerodromo o helipuerto
Ingrese nombre de aeródromo, localidad o designador OACI:

Aeródromo: Pichoy (PUB) (SCVD)

Ubicación: Valdivia, XIV Región, Chile (39º 38' 58'' S, 73º 05' 11'' W) Ver ubicación en el mapa

Pistas

Luces
Orientación Dimensión Pendiente Superficie Resistencia APCH THR RWY PAPI
17/35 2100 x 45 0,07 ASPH PCN 57 F/C/W/T Sí (3º)
Horas de operación HJ
Elevación 18 m / 59 ft
Otra Información Adm : DGAC
Uso : PUB
TEL : (56-63)2314302 FAX (56-63)2314316 Anexos ARO 4306/4307
Ubicado a 32 km NE de Valdivia
email : aro.pichoy@dgac.gob.cl

Otra información ver AIP-Chile Volumen I AD 3.9-20.1-V
CCCM/FCCV Descargar CCCM/FCCV
andera de Chile
Mapa de Pichoy (PUB) (SCVD)

Último METAR

METAR SCVD 272300Z AUTO 30006KT 250V320 9999 BKN022 OVC030 17/14 Q1014

Último TAF

TAF SCVD 271706Z 2718/2806 28005KT CAVOK TX23/2719Z TN12/2805Z BECMG 2718/2720 8000 -RA SCT040 BKN050 BECMG 2720/2722 9999 NSW BKN005 OVC010

Últimas fotos cámaras

Imagen aerodromo Pichoy (PUB) (SCVD) Sur tomada el 27-02-2024 11:04:29 Imagen aerodromo Pichoy (PUB) (SCVD) Norte tomada el 27-02-2024 10:59:36

Último NOTAM

W0415/24 NOTAMN Q)SCTZ/QWULW/IV/BO/AW/000/001/3936S07256W005 A)SCVD B)2402192002 C)2404142359 D)DLY VRNO BTN 1000-2300 / IVNO 1100-2359 E)RPAS FLT SECT 2NM NE AD ZONE ...D... RDO 4.89 NM WI: 393621S/725654W F)GND G)100FT AGL